Werte bis 5 Uhr SommerzeitDiagramme Frankenhausen: Tagesdaten Monatsdaten WindroseCSV-Datei: Frankenhausen19.csv

Wetterdaten 2019 Station: Frankenhausen
Temperaturen in °C relative Nieder- Global- Wind Wind Wind- Sonnen-
Datum Boden Boden Luft Luft Luft Luft Feuchte schlag strahlung max richtung schein
20 cm 5 cm 20 cm 2 m 2 m max 2 m min % mm W/m2*d m/s m/s ° h

20.03.2019 4,7 3,1 -1,8 -0,2 0,6 -0,8 91 0,2 0 2,3 5,2 --- ---
19.03.2019 4,6 4,1 2,7 3,6 8,3 -0,6 78 1,0 3347 2,3 7,3 --- 8,4
18.03.2019 5,1 4,4 3,5 4,3 7,8 2,1 79 1,4 2544 4,6 15,9 --- 5,9
17.03.2019 6,2 6,3 6,5 7,3 9,7 3,8 79 1,7 1664 4,9 16,7 --- 5,6
16.03.2019 5,9 6,2 7,5 8,2 11,2 5,1 82 1,4 839 5,0 14,0 --- 1,4
15.03.2019 5,3 5,5 7,0 7,7 12,3 5,9 87 0,9 952 5,7 16,4 --- 2,8
14.03.2019 5,0 4,8 5,1 5,7 7,5 4,7 86 0,9 967 7,1 17,2 --- 1,9
13.03.2019 4,9 4,8 5,1 5,6 8,4 3,6 77 0,8 2745 7,1 18,9 --- 5,3
12.03.2019 4,6 4,3 4,7 5,3 8,5 2,0 72 1,2 2432 5,1 15,6 --- 7,3
11.03.2019 4,8 3,9 2,3 3,0 4,9 0,9 88 2,4 1383 6,3 18,5 --- 4,2
10.03.2019 5,9 5,8 5,7 6,2 11,5 1,3 85 7,0 1550 6,1 29,3 --- 4,2
09.03.2019 5,9 6,1 7,3 8,1 12,8 5,7 77 4,2 2853 7,2 22,8 --- 6,7
08.03.2019 5,8 5,6 6,0 6,9 8,0 5,2 77 1,1 1273 5,9 18,5 --- 3,4
07.03.2019 6,4 7,0 9,4 10,3 12,9 6,5 69 1,6 2645 6,8 19,9 --- 6,2
06.03.2019 5,0 4,9 7,2 7,8 12,5 2,3 78 0,0 2094 4,5 16,0 --- 6,0
05.03.2019 5,4 4,9 4,5 5,4 7,8 3,3 80 0,2 1881 5,0 15,2 --- 5,0
04.03.2019 6,4 6,8 8,1 8,9 11,9 4,8 76 5,0 2230 7,2 23,4 --- 4,8
03.03.2019 5,8 6,3 8,9 9,7 10,9 8,1 84 0,0 805 5,6 13,0 --- 1,4
02.03.2019 5,3 5,3 5,1 5,5 8,6 3,3 91 0,0 997 2,5 9,4 --- 3,4
01.03.2019 5,6 6,1 6,8 7,3 10,0 3,5 97 0,8 912 3,1 11,3 --- 2,4
28.02.2019 4,1 4,2 7,0 8,4 14,6 1,1 72 0,0 2796 2,8 13,2 --- 7,5
27.02.2019 3,8 3,3 4,9 6,4 17,3 -1,1 59 0,0 3497 2,3 6,5 --- 7,7
26.02.2019 3,9 3,7 5,0 6,7 17,2 -0,6 67 0,0 3361 1,4 4,5 --- 7,6
25.02.2019 3,6 3,3 4,6 5,8 17,4 -0,1 66 0,0 3246 1,8 6,4 --- 7,5
24.02.2019 3,6 3,0 3,1 4,2 14,1 -1,6 62 0,0 3214 1,8 5,3 --- 7,4
23.02.2019 4,4 3,8 2,6 3,3 9,1 -1,5 70 0,0 2824 1,9 7,5 --- 7,4
22.02.2019 5,5 6,0 7,2 7,6 9,4 3,8 93 0,0 624 2,9 7,9 --- 0,8
21.02.2019 4,4 4,7 6,4 7,2 11,3 3,4 85 0,0 1520 2,3 7,9 --- 3,6
20.02.2019 4,1 4,3 5,3 6,3 9,7 3,1 78 0,0 1734 2,4 6,5 --- 5,7
19.02.2019 3,6 3,5 5,4 6,5 11,0 1,6 73 0,0 2069 3,0 10,4 --- 4,8
18.02.2019 3,3 3,1 5,8 7,2 14,0 1,3 66 0,0 2848 3,0 8,5 --- 6,8
17.02.2019 3,0 2,7 5,5 6,8 15,3 0,1 68 0,0 2686 2,7 8,0 --- 7,1
16.02.2019 2,9 2,6 5,5 7,0 13,9 2,8 64 0,0 2863 2,7 8,6 --- 7,0
15.02.2019 2,7 2,2 4,0 5,2 14,0 -0,8 73 0,1 2806 2,8 6,7 --- 7,0
14.02.2019 3,0 2,5 3,0 4,1 10,5 0,1 80 0,1 2310 2,1 6,2 --- 6,7
13.02.2019 3,0 3,0 3,6 4,3 9,6 1,9 86 0,4 1408 2,0 6,2 --- 5,3
12.02.2019 2,8 2,5 2,8 3,4 5,4 1,9 85 0,2 1110 4,6 10,5 --- 3,4
11.02.2019 3,2 3,0 2,9 3,5 5,8 2,0 88 5,7 1048 6,2 13,9 --- 2,4
10.02.2019 3,0 3,5 5,6 6,5 9,3 3,3 90 7,1 528 5,6 15,9 --- 0,5
09.02.2019 2,2 2,6 6,3 7,3 9,5 5,4 74 0,0 1652 6,8 22,0 --- 4,5
08.02.2019 0,8 0,3 4,1 5,0 7,2 2,4 89 0,0 698 4,2 13,1 --- 1,3
07.02.2019 0,8 0,2 1,6 2,2 3,8 1,2 85 0,0 771 4,1 12,3 --- 1,5
06.02.2019 0,8 0,1 1,1 1,9 5,6 -0,7 84 0,0 1720 3,9 12,8 --- 6,1
05.02.2019 0,7 0,1 1,5 2,3 4,9 0,2 81 0,0 735 2,1 10,0 --- 1,7
04.02.2019 0,7 0,1 -0,2 0,8 3,7 -2,2 86 0,0 1705 3,1 10,2 --- 5,4
03.02.2019 0,7 0,0 0,3 0,8 2,0 -0,3 94 0,2 713 4,0 10,7 --- 1,9
02.02.2019 0,7 0,0 0,4 0,8 1,8 0,2 99 0,6 419 1,3 5,8 --- 0,4
01.02.2019 0,7 -0,1 0,0 1,0 5,7 -2,0 87 0,2 1334 2,2 8,6 --- 4,6
31.01.2019 0,6 -0,1 -0,5 0,4 3,2 -2,4 81 0,2 1742 2,6 8,4 --- 5,5
30.01.2019 0,6 -0,2 -1,5 -0,7 1,0 -2,9 89 0,8 811 2,9 9,6 --- 2,6
29.01.2019 0,5 -0,2 0,1 0,9 3,6 -1,6 91 1,1 1215 2,6 9,5 --- 2,9
28.01.2019 0,4 -0,2 1,0 1,8 2,7 0,5 95 3,6 351 4,3 11,8 --- ---
27.01.2019 0,3 -0,2 3,4 4,3 6,0 2,5 96 2,5 676 4,1 12,5 --- 1,6
26.01.2019 0,3 -0,3 2,1 2,8 5,8 -0,6 99 13,0 406 3,1 8,3 --- ---
25.01.2019 0,3 -0,7 -3,8 -3,7 -0,6 -5,3 87 1,1 876 2,3 7,5 --- 2,4
24.01.2019 0,3 -1,1 -5,6 -5,4 -4,2 -7,2 88 0,1 622 1,8 6,1 --- 2,1
23.01.2019 0,5 -1,0 -4,6 -4,3 -3,0 -5,4 83 0,0 521 2,4 8,4 --- 0,1
22.01.2019 0,7 -1,1 -6,0 -5,6 -3,3 -7,8 91 0,0 544 3,7 11,0 --- 0,1
21.01.2019 1,2 -0,4 -6,4 -5,6 -1,4 -9,0 88 0,3 1932 1,6 5,7 --- 5,5
20.01.2019 1,7 0,3 -5,6 -4,3 1,1 -8,3 86 0,3 1892 0,8 4,0 --- 5,8
19.01.2019 2,3 1,0 -3,3 -2,4 1,5 -4,9 82 0,2 1379 1,4 4,7 --- 4,6
18.01.2019 3,1 1,7 -0,9 0,0 3,0 -2,4 85 0,4 1573 2,5 10,4 --- 5,2
17.01.2019 3,9 3,3 3,3 3,8 6,7 1,0 86 0,7 785 5,5 15,9 --- 2,2
16.01.2019 4,1 3,8 4,1 4,8 6,1 2,9 85 0,0 336 4,1 11,0 --- ---
15.01.2019 3,4 2,7 3,4 4,0 6,5 1,5 83 0,2 533 4,7 14,0 --- 0,7
14.01.2019 4,2 3,5 2,7 3,3 5,7 0,8 85 2,7 950 6,7 15,8 --- 2,7
13.01.2019 4,3 4,4 5,7 6,4 8,6 4,2 95 12,8 245 5,8 18,0 --- ---
12.01.2019 3,7 3,6 4,4 5,0 6,0 4,5 94 2,9 225 4,7 11,5 --- ---
11.01.2019 2,8 1,9 1,3 1,7 5,6 -0,6 99 3,1 156 2,5 9,5 --- ---
10.01.2019 3,1 1,9 -0,2 0,2 0,9 -0,6 89 0,2 466 3,0 7,7 --- ---
09.01.2019 3,9 2,7 1,1 1,4 3,8 0,0 89 1,7 363 6,7 16,0 --- 0,2
08.01.2019 4,8 4,5 4,5 5,2 6,3 3,3 90 7,3 511 8,7 24,4 --- 0,8
07.01.2019 4,8 4,7 4,4 4,8 5,8 4,1 94 0,4 361 3,7 9,6 --- 0,1
06.01.2019 4,7 5,0 5,6 6,1 6,7 5,1 100 10,8 238 3,9 8,2 --- ---
05.01.2019 3,3 3,4 5,2 5,8 7,0 3,6 99 7,4 216 6,3 15,1 --- ---
04.01.2019 2,3 1,1 0,7 1,4 3,7 -0,9 98 0,5 309 4,2 11,9 --- ---
03.01.2019 2,9 1,4 -1,2 -0,4 1,7 -3,0 92 0,0 358 1,4 5,6 --- 0,2
02.01.2019 4,2 2,8 1,5 2,2 3,7 -0,9 74 1,7 1077 6,3 15,9 --- 3,3
01.01.2019 5,5 5,4 5,5 6,2 8,1 2,2 92 1,4 201 5,7 17,6 --- ---

Mittelwerte (Temperaturen, Strahlung, rel. Feuchte, Wind), Summe (Regen) für 2019
3,3 2,9 3,0 3,8 84 124 1.370 3,9

Landesbetrieb Landwirtschaft Hessen 2009

      Werte bis 5 Uhr SommerzeitCSV-Datei: Frankenhausen19.csvDiagramm: Frankenhausen